N352LJ KEFK-KMHT
Flight info
| Callsign | N352LJ |
|---|---|
| Flight time | 1h 11m |
| Altitude | 7000 |
| Route | PLOTT BILLS/N0109F070 PUTRE |
| Aircraft | C172/L-SFG/C |
Departure
| Time | 2026-04-23 22:11 |
|---|---|
| Airport | Northeast Kingdom International Airport (KEFK) |
Arrival
| Time | 2026-04-23 23:23 |
|---|---|
| Airport | Manchester-Boston Regional Airport (KMHT) |
| Time | Latitude | Longitude | Altitude | Speed | Heading |
|---|---|---|---|---|---|
| 2026-04-23 21:58 | 44.89014 | -72.22594 | 921 ft | 0 kts | 68° |
| 2026-04-23 22:09 | 44.89014 | -72.22586 | 921 ft | 0 kts | 133° |
| 2026-04-23 22:09 | 44.89002 | -72.22578 | 921 ft | 5 kts | 163° |
| 2026-04-23 22:09 | 44.88876 | -72.22543 | 920 ft | 22 kts | 181° |
| 2026-04-23 22:10 | 44.88807 | -72.22673 | 923 ft | 2 kts | 241° |
| 2026-04-23 22:10 | 44.88807 | -72.22674 | 923 ft | 0 kts | 242° |
| 2026-04-23 22:10 | 44.88804 | -72.22697 | 924 ft | 3 kts | 280° |
| 2026-04-23 22:10 | 44.88859 | -72.22755 | 926 ft | 27 kts | 338° |
| 2026-04-23 22:11 | 44.89207 | -72.22929 | 960 ft | 69 kts | 340° |
| 2026-04-23 22:11 | 44.89688 | -72.23119 | 1158 ft | 75 kts | 342° |
| 2026-04-23 22:11 | 44.90207 | -72.23291 | 1381 ft | 77 kts | 345° |
| 2026-04-23 22:11 | 44.90726 | -72.23414 | 1666 ft | 76 kts | 347° |
| 2026-04-23 22:12 | 44.91213 | -72.23506 | 1952 ft | 71 kts | 351° |
| 2026-04-23 22:12 | 44.91696 | -72.23517 | 2229 ft | 65 kts | 352° |
| 2026-04-23 22:12 | 44.92169 | -72.23552 | 2394 ft | 71 kts | 335° |
| 2026-04-23 22:12 | 44.92469 | -72.24035 | 2608 ft | 71 kts | 285° |
| 2026-04-23 22:13 | 44.92255 | -72.24678 | 2830 ft | 85 kts | 221° |
| 2026-04-23 22:13 | 44.91659 | -72.24816 | 3095 ft | 86 kts | 190° |
| 2026-04-23 22:13 | 44.91057 | -72.24861 | 3259 ft | 93 kts | 192° |
| 2026-04-23 22:13 | 44.90434 | -72.24853 | 3533 ft | 83 kts | 196° |
| 2026-04-23 22:14 | 44.89840 | -72.25046 | 3685 ft | 88 kts | 198° |
| 2026-04-23 22:14 | 44.89146 | -72.25055 | 3629 ft | 119 kts | 189° |
| 2026-04-23 22:14 | 44.88265 | -72.25097 | 3556 ft | 132 kts | 189° |
| 2026-04-23 22:14 | 44.87322 | -72.25148 | 3540 ft | 136 kts | 188° |
| 2026-04-23 22:15 | 44.86381 | -72.25197 | 3540 ft | 136 kts | 188° |
| 2026-04-23 22:15 | 44.85427 | -72.25250 | 3539 ft | 137 kts | 189° |
| 2026-04-23 22:15 | 44.84477 | -72.25304 | 3537 ft | 137 kts | 188° |
| 2026-04-23 22:15 | 44.83512 | -72.25358 | 3539 ft | 138 kts | 189° |
| 2026-04-23 22:16 | 44.82561 | -72.25411 | 3537 ft | 138 kts | 189° |
| 2026-04-23 22:16 | 44.81597 | -72.25465 | 3539 ft | 137 kts | 190° |
| 2026-04-23 22:16 | 44.80654 | -72.25246 | 3536 ft | 145 kts | 160° |
| 2026-04-23 22:16 | 44.79752 | -72.24578 | 3539 ft | 146 kts | 155° |
| 2026-04-23 22:17 | 44.78879 | -72.23870 | 3539 ft | 145 kts | 153° |
| 2026-04-23 22:17 | 44.78005 | -72.23157 | 3538 ft | 146 kts | 154° |
| 2026-04-23 22:17 | 44.77105 | -72.22493 | 3537 ft | 143 kts | 162° |
| 2026-04-23 22:17 | 44.76170 | -72.22099 | 3538 ft | 141 kts | 173° |
| 2026-04-23 22:18 | 44.75210 | -72.21899 | 3534 ft | 138 kts | 181° |
| 2026-04-23 22:18 | 44.74256 | -72.21777 | 3537 ft | 137 kts | 182° |
| 2026-04-23 22:18 | 44.73301 | -72.21679 | 3528 ft | 136 kts | 184° |
| 2026-04-23 22:18 | 44.72354 | -72.21597 | 3535 ft | 135 kts | 184° |
| 2026-04-23 22:19 | 44.71415 | -72.21523 | 3530 ft | 135 kts | 184° |
| 2026-04-23 22:19 | 44.70490 | -72.21439 | 3622 ft | 128 kts | 184° |
| 2026-04-23 22:19 | 44.69620 | -72.21361 | 3746 ft | 122 kts | 182° |
| 2026-04-23 22:19 | 44.68791 | -72.21294 | 3857 ft | 119 kts | 182° |
| 2026-04-23 22:20 | 44.67971 | -72.21230 | 3973 ft | 117 kts | 184° |
| 2026-04-23 22:20 | 44.67163 | -72.21162 | 4103 ft | 115 kts | 185° |
| 2026-04-23 22:20 | 44.66370 | -72.21098 | 4225 ft | 114 kts | 184° |
| 2026-04-23 22:20 | 44.65581 | -72.21030 | 4359 ft | 112 kts | 186° |
| 2026-04-23 22:21 | 44.64812 | -72.20969 | 4479 ft | 111 kts | 185° |
| 2026-04-23 22:21 | 44.64041 | -72.20909 | 4603 ft | 110 kts | 182° |
| 2026-04-23 22:21 | 44.63276 | -72.20841 | 4718 ft | 109 kts | 186° |
| 2026-04-23 22:21 | 44.62515 | -72.20779 | 4830 ft | 109 kts | 186° |
| 2026-04-23 22:22 | 44.61762 | -72.20718 | 4957 ft | 108 kts | 184° |
| 2026-04-23 22:22 | 44.61017 | -72.20657 | 5085 ft | 107 kts | 186° |
| 2026-04-23 22:22 | 44.60280 | -72.20595 | 5204 ft | 106 kts | 187° |
| 2026-04-23 22:22 | 44.59551 | -72.20538 | 5336 ft | 105 kts | 184° |
| 2026-04-23 22:23 | 44.58824 | -72.20483 | 5456 ft | 104 kts | 186° |
| 2026-04-23 22:23 | 44.58108 | -72.20419 | 5571 ft | 104 kts | 186° |
| 2026-04-23 22:23 | 44.57382 | -72.20361 | 5688 ft | 103 kts | 185° |
| 2026-04-23 22:23 | 44.56665 | -72.20296 | 5820 ft | 102 kts | 186° |
| 2026-04-23 22:24 | 44.55957 | -72.20248 | 5949 ft | 102 kts | 182° |
| 2026-04-23 22:24 | 44.55256 | -72.20079 | 6088 ft | 102 kts | 180° |
| 2026-04-23 22:24 | 44.54555 | -72.19852 | 6204 ft | 103 kts | 177° |
| 2026-04-23 22:24 | 44.53865 | -72.19619 | 6331 ft | 103 kts | 175° |
| 2026-04-23 22:25 | 44.53171 | -72.19374 | 6459 ft | 101 kts | 178° |
| 2026-04-23 22:25 | 44.52495 | -72.19132 | 6569 ft | 101 kts | 175° |
| 2026-04-23 22:25 | 44.51812 | -72.18890 | 6694 ft | 100 kts | 174° |
| 2026-04-23 22:25 | 44.51139 | -72.18650 | 6823 ft | 99 kts | 178° |
| 2026-04-23 22:26 | 44.50479 | -72.18416 | 6941 ft | 98 kts | 176° |
| 2026-04-23 22:26 | 44.49809 | -72.18179 | 7072 ft | 98 kts | 175° |
| 2026-04-23 22:26 | 44.49156 | -72.17945 | 7196 ft | 97 kts | 175° |
| 2026-04-23 22:26 | 44.48508 | -72.17718 | 7315 ft | 96 kts | 176° |
| 2026-04-23 22:27 | 44.47855 | -72.17480 | 7441 ft | 95 kts | 177° |
| 2026-04-23 22:27 | 44.47219 | -72.17262 | 7562 ft | 94 kts | 177° |
| 2026-04-23 22:27 | 44.46582 | -72.17034 | 7688 ft | 93 kts | 176° |
| 2026-04-23 22:27 | 44.45950 | -72.16808 | 7815 ft | 92 kts | 176° |
| 2026-04-23 22:28 | 44.45330 | -72.16587 | 7935 ft | 91 kts | 176° |
| 2026-04-23 22:28 | 44.44710 | -72.16370 | 8062 ft | 90 kts | 176° |
| 2026-04-23 22:28 | 44.44104 | -72.16147 | 8188 ft | 89 kts | 176° |
| 2026-04-23 22:28 | 44.43509 | -72.15936 | 8314 ft | 88 kts | 177° |
| 2026-04-23 22:29 | 44.42919 | -72.15729 | 8436 ft | 87 kts | 177° |
| 2026-04-23 22:29 | 44.42335 | -72.15524 | 8553 ft | 86 kts | 176° |
| 2026-04-23 22:29 | 44.41755 | -72.15321 | 8677 ft | 85 kts | 176° |
| 2026-04-23 22:29 | 44.41178 | -72.15121 | 8801 ft | 84 kts | 177° |
| 2026-04-23 22:30 | 44.40617 | -72.14935 | 8919 ft | 83 kts | 176° |
| 2026-04-23 22:30 | 44.40054 | -72.14747 | 9048 ft | 82 kts | 178° |
| 2026-04-23 22:30 | 44.39510 | -72.14569 | 9170 ft | 80 kts | 179° |
| 2026-04-23 22:30 | 44.38968 | -72.14397 | 9292 ft | 79 kts | 178° |
| 2026-04-23 22:31 | 44.38431 | -72.14178 | 9411 ft | 78 kts | 177° |
| 2026-04-23 22:31 | 44.37900 | -72.14020 | 9490 ft | 81 kts | 178° |
| 2026-04-23 22:31 | 44.37313 | -72.13858 | 9488 ft | 90 kts | 178° |
| 2026-04-23 22:31 | 44.36670 | -72.13670 | 9483 ft | 97 kts | 176° |
| 2026-04-23 22:32 | 44.36002 | -72.13458 | 9483 ft | 101 kts | 176° |
| 2026-04-23 22:32 | 44.35312 | -72.13237 | 9483 ft | 103 kts | 175° |
| 2026-04-23 22:32 | 44.34611 | -72.13004 | 9485 ft | 104 kts | 175° |
| 2026-04-23 22:32 | 44.33905 | -72.12765 | 9483 ft | 105 kts | 174° |
| 2026-04-23 22:33 | 44.33189 | -72.12517 | 9485 ft | 105 kts | 174° |
| 2026-04-23 22:33 | 44.32478 | -72.12276 | 9485 ft | 106 kts | 175° |
| 2026-04-23 22:33 | 44.31755 | -72.12022 | 9485 ft | 106 kts | 175° |
| 2026-04-23 22:33 | 44.31045 | -72.11774 | 9481 ft | 106 kts | 174° |
| 2026-04-23 22:34 | 44.30325 | -72.11520 | 9482 ft | 106 kts | 174° |
| 2026-04-23 22:34 | 44.29618 | -72.11274 | 9485 ft | 105 kts | 174° |
| 2026-04-23 22:34 | 44.28899 | -72.11023 | 9488 ft | 105 kts | 175° |
| 2026-04-23 22:34 | 44.28184 | -72.10772 | 9484 ft | 105 kts | 175° |
| 2026-04-23 22:35 | 44.27470 | -72.10521 | 9484 ft | 105 kts | 174° |
| 2026-04-23 22:35 | 44.26759 | -72.10269 | 9489 ft | 105 kts | 174° |
| 2026-04-23 22:35 | 44.26054 | -72.10023 | 9489 ft | 105 kts | 175° |
| 2026-04-23 22:35 | 44.25347 | -72.09778 | 9487 ft | 105 kts | 174° |
| 2026-04-23 22:36 | 44.24633 | -72.09525 | 9485 ft | 106 kts | 174° |
| 2026-04-23 22:36 | 44.23922 | -72.09275 | 9488 ft | 106 kts | 174° |
| 2026-04-23 22:36 | 44.23208 | -72.09026 | 9485 ft | 106 kts | 174° |
| 2026-04-23 22:36 | 44.22490 | -72.08772 | 9489 ft | 106 kts | 175° |
| 2026-04-23 22:37 | 44.21777 | -72.08524 | 9489 ft | 106 kts | 174° |
| 2026-04-23 22:37 | 44.21061 | -72.08270 | 9490 ft | 106 kts | 175° |
| 2026-04-23 22:37 | 44.20346 | -72.08020 | 9490 ft | 106 kts | 175° |
| 2026-04-23 22:37 | 44.19624 | -72.07769 | 9490 ft | 106 kts | 175° |
| 2026-04-23 22:38 | 44.18908 | -72.07517 | 9489 ft | 106 kts | 174° |
| 2026-04-23 22:38 | 44.18187 | -72.07261 | 9489 ft | 107 kts | 175° |
| 2026-04-23 22:38 | 44.17464 | -72.07008 | 9490 ft | 107 kts | 175° |
| 2026-04-23 22:38 | 44.16747 | -72.06757 | 9489 ft | 106 kts | 174° |
| 2026-04-23 22:39 | 44.16032 | -72.06503 | 9491 ft | 106 kts | 175° |
| 2026-04-23 22:39 | 44.15316 | -72.06256 | 9490 ft | 106 kts | 175° |
| 2026-04-23 22:39 | 44.14601 | -72.06004 | 9492 ft | 106 kts | 174° |
| 2026-04-23 22:39 | 44.13877 | -72.05748 | 9489 ft | 106 kts | 175° |
| 2026-04-23 22:40 | 44.13164 | -72.05503 | 9485 ft | 106 kts | 175° |
| 2026-04-23 22:40 | 44.12442 | -72.05249 | 9483 ft | 106 kts | 176° |
| 2026-04-23 22:40 | 44.11015 | -72.04748 | 9481 ft | 106 kts | 176° |
| 2026-04-23 22:41 | 44.10289 | -72.04494 | 9478 ft | 106 kts | 175° |
| 2026-04-23 22:41 | 44.09575 | -72.04246 | 9479 ft | 106 kts | 176° |
| 2026-04-23 22:41 | 44.08863 | -72.03999 | 9472 ft | 106 kts | 175° |
| 2026-04-23 22:41 | 44.08145 | -72.03748 | 9474 ft | 106 kts | 176° |
| 2026-04-23 22:42 | 44.07423 | -72.03494 | 9472 ft | 107 kts | 177° |
| 2026-04-23 22:42 | 44.06697 | -72.03243 | 9471 ft | 107 kts | 176° |
| 2026-04-23 22:42 | 44.05980 | -72.02990 | 9468 ft | 107 kts | 176° |
| 2026-04-23 22:42 | 44.05255 | -72.02735 | 9463 ft | 107 kts | 176° |
| 2026-04-23 22:43 | 44.04533 | -72.02486 | 9461 ft | 107 kts | 175° |
| 2026-04-23 22:43 | 44.03803 | -72.02232 | 9462 ft | 108 kts | 176° |
| 2026-04-23 22:43 | 44.03071 | -72.01976 | 9460 ft | 108 kts | 176° |
| 2026-04-23 22:43 | 44.02349 | -72.01726 | 9456 ft | 108 kts | 176° |
| 2026-04-23 22:44 | 44.01614 | -72.01472 | 9454 ft | 108 kts | 176° |
| 2026-04-23 22:44 | 44.00892 | -72.01215 | 9452 ft | 108 kts | 177° |
| 2026-04-23 22:44 | 44.00163 | -72.00960 | 9447 ft | 108 kts | 177° |
| 2026-04-23 22:44 | 43.99432 | -72.00709 | 9446 ft | 108 kts | 177° |
| 2026-04-23 22:45 | 43.98706 | -72.00452 | 9448 ft | 108 kts | 178° |
| 2026-04-23 22:45 | 43.97967 | -72.00195 | 9439 ft | 109 kts | 177° |
| 2026-04-23 22:45 | 43.97217 | -71.99940 | 9364 ft | 114 kts | 177° |
| 2026-04-23 22:45 | 43.96434 | -71.99672 | 9281 ft | 117 kts | 176° |
| 2026-04-23 22:46 | 43.95636 | -71.99392 | 9205 ft | 119 kts | 175° |
| 2026-04-23 22:46 | 43.94831 | -71.99114 | 9122 ft | 120 kts | 176° |
| 2026-04-23 22:46 | 43.94022 | -71.98830 | 9041 ft | 121 kts | 176° |
| 2026-04-23 22:46 | 43.93198 | -71.98541 | 8962 ft | 122 kts | 176° |
| 2026-04-23 22:47 | 43.92363 | -71.98251 | 8878 ft | 123 kts | 176° |
| 2026-04-23 22:47 | 43.91539 | -71.97964 | 8798 ft | 124 kts | 176° |
| 2026-04-23 22:47 | 43.90699 | -71.97669 | 8717 ft | 124 kts | 176° |
| 2026-04-23 22:47 | 43.89850 | -71.97373 | 8634 ft | 125 kts | 176° |
| 2026-04-23 22:48 | 43.89011 | -71.97080 | 8561 ft | 126 kts | 176° |
| 2026-04-23 22:48 | 43.88149 | -71.96783 | 8491 ft | 126 kts | 176° |
| 2026-04-23 22:48 | 43.87292 | -71.96487 | 8372 ft | 130 kts | 176° |
| 2026-04-23 22:48 | 43.86404 | -71.96176 | 8250 ft | 132 kts | 176° |
| 2026-04-23 22:49 | 43.85518 | -71.95872 | 8129 ft | 133 kts | 177° |
| 2026-04-23 22:49 | 43.84607 | -71.95556 | 8002 ft | 135 kts | 176° |
| 2026-04-23 22:49 | 43.83693 | -71.95240 | 7881 ft | 135 kts | 176° |
| 2026-04-23 22:49 | 43.82786 | -71.94923 | 7759 ft | 136 kts | 176° |
| 2026-04-23 22:50 | 43.81859 | -71.94601 | 7630 ft | 137 kts | 176° |
| 2026-04-23 22:50 | 43.80944 | -71.94280 | 7510 ft | 138 kts | 175° |
| 2026-04-23 22:50 | 43.80001 | -71.93959 | 7388 ft | 139 kts | 176° |
| 2026-04-23 22:50 | 43.79070 | -71.93630 | 7263 ft | 139 kts | 176° |
| 2026-04-23 22:51 | 43.78120 | -71.93302 | 7144 ft | 140 kts | 175° |
| 2026-04-23 22:51 | 43.77183 | -71.92974 | 7019 ft | 140 kts | 176° |
| 2026-04-23 22:51 | 43.76241 | -71.92651 | 6896 ft | 141 kts | 176° |
| 2026-04-23 22:51 | 43.75290 | -71.92328 | 6769 ft | 142 kts | 175° |
| 2026-04-23 22:52 | 43.74326 | -71.91991 | 6642 ft | 143 kts | 175° |
| 2026-04-23 22:52 | 43.73367 | -71.91657 | 6516 ft | 143 kts | 176° |
| 2026-04-23 22:52 | 43.72411 | -71.91326 | 6506 ft | 137 kts | 176° |
| 2026-04-23 22:52 | 43.71513 | -71.91008 | 6511 ft | 132 kts | 176° |
| 2026-04-23 22:53 | 43.70620 | -71.90698 | 6512 ft | 130 kts | 175° |
| 2026-04-23 22:53 | 43.69751 | -71.90402 | 6512 ft | 128 kts | 176° |
| 2026-04-23 22:53 | 43.68893 | -71.90103 | 6510 ft | 128 kts | 176° |
| 2026-04-23 22:53 | 43.68032 | -71.89808 | 6511 ft | 127 kts | 176° |
| 2026-04-23 22:54 | 43.67171 | -71.89507 | 6510 ft | 127 kts | 175° |
| 2026-04-23 22:54 | 43.66313 | -71.89213 | 6511 ft | 126 kts | 176° |
| 2026-04-23 22:54 | 43.65463 | -71.88924 | 6511 ft | 127 kts | 175° |
| 2026-04-23 22:54 | 43.64610 | -71.88627 | 6509 ft | 127 kts | 176° |
| 2026-04-23 22:55 | 43.63753 | -71.88332 | 6514 ft | 127 kts | 177° |
| 2026-04-23 22:55 | 43.62901 | -71.87976 | 6508 ft | 132 kts | 163° |
| 2026-04-23 22:55 | 43.62112 | -71.87300 | 6509 ft | 134 kts | 155° |
| 2026-04-23 22:55 | 43.61345 | -71.86556 | 6510 ft | 135 kts | 153° |
| 2026-04-23 22:56 | 43.60578 | -71.85781 | 6507 ft | 136 kts | 154° |
| 2026-04-23 22:56 | 43.59825 | -71.85008 | 6511 ft | 135 kts | 153° |
| 2026-04-23 22:56 | 43.59076 | -71.84231 | 6509 ft | 136 kts | 153° |
| 2026-04-23 22:56 | 43.58315 | -71.83439 | 6508 ft | 136 kts | 152° |
| 2026-04-23 22:57 | 43.57567 | -71.82652 | 6508 ft | 136 kts | 153° |
| 2026-04-23 22:57 | 43.56808 | -71.81854 | 6507 ft | 136 kts | 152° |
| 2026-04-23 22:57 | 43.56056 | -71.81062 | 6509 ft | 136 kts | 152° |
| 2026-04-23 22:57 | 43.55302 | -71.80270 | 6510 ft | 136 kts | 152° |
| 2026-04-23 22:58 | 43.54554 | -71.79477 | 6510 ft | 136 kts | 152° |
| 2026-04-23 22:58 | 43.53804 | -71.78685 | 6506 ft | 136 kts | 152° |
| 2026-04-23 22:58 | 43.53053 | -71.77894 | 6504 ft | 136 kts | 152° |
| 2026-04-23 22:58 | 43.52305 | -71.77105 | 6507 ft | 135 kts | 152° |
| 2026-04-23 22:59 | 43.51554 | -71.76313 | 6505 ft | 136 kts | 152° |
| 2026-04-23 22:59 | 43.50806 | -71.75523 | 6505 ft | 136 kts | 152° |
| 2026-04-23 22:59 | 43.50052 | -71.74728 | 6506 ft | 136 kts | 152° |
| 2026-04-23 22:59 | 43.49301 | -71.73938 | 6505 ft | 136 kts | 152° |
| 2026-04-23 23:00 | 43.48551 | -71.73144 | 6503 ft | 136 kts | 152° |
| 2026-04-23 23:00 | 43.47794 | -71.72347 | 6502 ft | 136 kts | 152° |
| 2026-04-23 23:00 | 43.47039 | -71.71553 | 6503 ft | 136 kts | 152° |
| 2026-04-23 23:00 | 43.46286 | -71.70761 | 6502 ft | 136 kts | 152° |
| 2026-04-23 23:01 | 43.45540 | -71.69972 | 6504 ft | 137 kts | 152° |
| 2026-04-23 23:01 | 43.44776 | -71.69173 | 6502 ft | 137 kts | 152° |
| 2026-04-23 23:01 | 43.44025 | -71.68378 | 6499 ft | 137 kts | 152° |
| 2026-04-23 23:01 | 43.43263 | -71.67576 | 6500 ft | 136 kts | 152° |
| 2026-04-23 23:02 | 43.42509 | -71.66785 | 6501 ft | 137 kts | 152° |
| 2026-04-23 23:02 | 43.41754 | -71.65992 | 6502 ft | 138 kts | 152° |
| 2026-04-23 23:02 | 43.40985 | -71.65185 | 6501 ft | 138 kts | 152° |
| 2026-04-23 23:02 | 43.40228 | -71.64378 | 6499 ft | 139 kts | 150° |
| 2026-04-23 23:03 | 43.39487 | -71.63535 | 6501 ft | 139 kts | 149° |
| 2026-04-23 23:03 | 43.38746 | -71.62658 | 6501 ft | 139 kts | 148° |
| 2026-04-23 23:03 | 43.38018 | -71.61795 | 6498 ft | 139 kts | 149° |
| 2026-04-23 23:03 | 43.37267 | -71.60934 | 6500 ft | 139 kts | 150° |
| 2026-04-23 23:04 | 43.36513 | -71.60109 | 6498 ft | 139 kts | 152° |
| 2026-04-23 23:04 | 43.35739 | -71.59285 | 6497 ft | 139 kts | 151° |
| 2026-04-23 23:04 | 43.34976 | -71.58481 | 6496 ft | 139 kts | 151° |
| 2026-04-23 23:04 | 43.34200 | -71.57663 | 6500 ft | 140 kts | 151° |
| 2026-04-23 23:05 | 43.33429 | -71.56853 | 6494 ft | 140 kts | 152° |
| 2026-04-23 23:05 | 43.32659 | -71.56047 | 6499 ft | 140 kts | 152° |
| 2026-04-23 23:05 | 43.31881 | -71.55232 | 6498 ft | 140 kts | 153° |
| 2026-04-23 23:05 | 43.31118 | -71.54433 | 6499 ft | 139 kts | 153° |
| 2026-04-23 23:06 | 43.30336 | -71.53610 | 6496 ft | 140 kts | 152° |
| 2026-04-23 23:06 | 43.29574 | -71.52813 | 6497 ft | 139 kts | 152° |
| 2026-04-23 23:06 | 43.28800 | -71.52002 | 6498 ft | 139 kts | 152° |
| 2026-04-23 23:06 | 43.28032 | -71.51200 | 6497 ft | 139 kts | 152° |
| 2026-04-23 23:07 | 43.27258 | -71.50391 | 6496 ft | 140 kts | 152° |
| 2026-04-23 23:07 | 43.26488 | -71.49586 | 6500 ft | 140 kts | 150° |
| 2026-04-23 23:07 | 43.25715 | -71.48776 | 6497 ft | 140 kts | 152° |
| 2026-04-23 23:07 | 43.24931 | -71.47956 | 6498 ft | 140 kts | 152° |
| 2026-04-23 23:08 | 43.24162 | -71.47154 | 6497 ft | 140 kts | 152° |
| 2026-04-23 23:08 | 43.23383 | -71.46339 | 6499 ft | 140 kts | 151° |
| 2026-04-23 23:08 | 43.22618 | -71.45539 | 6499 ft | 139 kts | 152° |
| 2026-04-23 23:08 | 43.21840 | -71.44727 | 6498 ft | 139 kts | 152° |
| 2026-04-23 23:09 | 43.21068 | -71.43922 | 6497 ft | 140 kts | 152° |
| 2026-04-23 23:09 | 43.20291 | -71.43114 | 6496 ft | 140 kts | 152° |
| 2026-04-23 23:09 | 43.19523 | -71.42310 | 6499 ft | 140 kts | 152° |
| 2026-04-23 23:09 | 43.18754 | -71.41509 | 6497 ft | 139 kts | 151° |
| 2026-04-23 23:10 | 43.17977 | -71.40697 | 6497 ft | 139 kts | 152° |
| 2026-04-23 23:10 | 43.17212 | -71.39902 | 6494 ft | 139 kts | 152° |
| 2026-04-23 23:10 | 43.16434 | -71.39090 | 6494 ft | 139 kts | 152° |
| 2026-04-23 23:10 | 43.15668 | -71.38292 | 6495 ft | 139 kts | 153° |
| 2026-04-23 23:11 | 43.14886 | -71.37539 | 6487 ft | 133 kts | 166° |
| 2026-04-23 23:11 | 43.14018 | -71.37331 | 6492 ft | 122 kts | 191° |
| 2026-04-23 23:11 | 43.13196 | -71.37420 | 6494 ft | 118 kts | 199° |
| 2026-04-23 23:11 | 43.12398 | -71.37614 | 6493 ft | 117 kts | 201° |
| 2026-04-23 23:12 | 43.11599 | -71.37848 | 6493 ft | 116 kts | 202° |
| 2026-04-23 23:12 | 43.10819 | -71.38092 | 6490 ft | 115 kts | 202° |
| 2026-04-23 23:12 | 43.10039 | -71.38344 | 6492 ft | 115 kts | 204° |
| 2026-04-23 23:12 | 43.09253 | -71.38606 | 6493 ft | 115 kts | 203° |
| 2026-04-23 23:13 | 43.08479 | -71.38867 | 6492 ft | 115 kts | 203° |
| 2026-04-23 23:13 | 43.07706 | -71.39125 | 6491 ft | 115 kts | 204° |
| 2026-04-23 23:13 | 43.06921 | -71.39386 | 6486 ft | 115 kts | 204° |
| 2026-04-23 23:13 | 43.06153 | -71.39647 | 6491 ft | 115 kts | 204° |
| 2026-04-23 23:14 | 43.05381 | -71.39906 | 6491 ft | 115 kts | 204° |
| 2026-04-23 23:14 | 43.04604 | -71.40167 | 6469 ft | 116 kts | 204° |
| 2026-04-23 23:14 | 43.03799 | -71.40443 | 6084 ft | 119 kts | 204° |
| 2026-04-23 23:14 | 43.03009 | -71.40708 | 5711 ft | 118 kts | 204° |
| 2026-04-23 23:15 | 43.02213 | -71.40978 | 5333 ft | 119 kts | 205° |
| 2026-04-23 23:15 | 43.01406 | -71.41249 | 4957 ft | 120 kts | 204° |
| 2026-04-23 23:15 | 43.00597 | -71.41523 | 4594 ft | 121 kts | 205° |
| 2026-04-23 23:15 | 42.99775 | -71.41796 | 4218 ft | 124 kts | 205° |
| 2026-04-23 23:16 | 42.98925 | -71.42085 | 3836 ft | 127 kts | 205° |
| 2026-04-23 23:16 | 42.98071 | -71.42371 | 3469 ft | 129 kts | 206° |
| 2026-04-23 23:16 | 42.97198 | -71.42662 | 3105 ft | 131 kts | 204° |
| 2026-04-23 23:16 | 42.96302 | -71.42960 | 2731 ft | 133 kts | 205° |
| 2026-04-23 23:17 | 42.95407 | -71.43262 | 2369 ft | 134 kts | 204° |
| 2026-04-23 23:17 | 42.94504 | -71.43565 | 1999 ft | 135 kts | 202° |
| 2026-04-23 23:17 | 42.93603 | -71.43914 | 1626 ft | 134 kts | 214° |
| 2026-04-23 23:17 | 42.93018 | -71.44778 | 1268 ft | 118 kts | 248° |
| 2026-04-23 23:18 | 42.92622 | -71.45686 | 885 ft | 111 kts | 263° |
| 2026-04-23 23:18 | 42.92424 | -71.46735 | 842 ft | 105 kts | 255° |
| 2026-04-23 23:18 | 42.91961 | -71.47382 | 1282 ft | 87 kts | 235° |
| 2026-04-23 23:18 | 42.91488 | -71.47980 | 1525 ft | 84 kts | 241° |
| 2026-04-23 23:19 | 42.90976 | -71.48566 | 1669 ft | 106 kts | 218° |
| 2026-04-23 23:19 | 42.90184 | -71.48579 | 1878 ft | 121 kts | 166° |
| 2026-04-23 23:19 | 42.89574 | -71.47774 | 2021 ft | 126 kts | 114° |
| 2026-04-23 23:19 | 42.89195 | -71.46834 | 2092 ft | 114 kts | 111° |
| 2026-04-23 23:20 | 42.88853 | -71.45782 | 1921 ft | 118 kts | 105° |
| 2026-04-23 23:20 | 42.88591 | -71.44769 | 1847 ft | 113 kts | 95° |
| 2026-04-23 23:20 | 42.88365 | -71.43678 | 1703 ft | 112 kts | 86° |
| 2026-04-23 23:20 | 42.88510 | -71.42714 | 1481 ft | 102 kts | 42° |
| 2026-04-23 23:21 | 42.88983 | -71.42169 | 1400 ft | 87 kts | 31° |
| 2026-04-23 23:21 | 42.89434 | -71.41552 | 1286 ft | 98 kts | 42° |
| 2026-04-23 23:21 | 42.89811 | -71.41297 | 1016 ft | 82 kts | 321° |
| 2026-04-23 23:21 | 42.90300 | -71.41617 | 739 ft | 75 kts | 342° |
| 2026-04-23 23:22 | 42.90748 | -71.41972 | 425 ft | 81 kts | 334° |
| 2026-04-23 23:22 | 42.91257 | -71.42230 | 399 ft | 74 kts | 337° |
| 2026-04-23 23:22 | 42.91724 | -71.42480 | 385 ft | 74 kts | 334° |
| 2026-04-23 23:22 | 42.92197 | -71.42787 | 253 ft | 70 kts | 335° |
| 2026-04-23 23:23 | 42.92538 | -71.42969 | 225 ft | 34 kts | 340° |
| 2026-04-23 23:23 | 42.92700 | -71.43056 | 227 ft | 19 kts | 330° |
| 2026-04-23 23:23 | 42.92770 | -71.43040 | 230 ft | 0 kts | 55° |
| 2026-04-23 23:24 | 42.92873 | -71.42965 | 235 ft | 27 kts | 26° |